Fair Play, Missouri
Current Conditions -  °F | °C
As of 2:52 PM on Thursday 18 Dec 2014 (Local Time) from KSGF Reporting Station
Overcast Overcast  
Wind Chill: 38°   Ceiling: 500
Heat Index: 38°   Visibility: 9mi
Dew Point: 35°   Wind: 0mph
Humidity: 89%   Direction: NA
Pressure: 30.14"   Gusts: NA
Location:  37.63°N, 93.57°W
Report Text: KSGF 182052Z 00000KT 9SM OVC005 03/02 A3014 RMK AO2 SLP213 T00330017 55010
Loading
Personal Weather Stations






























Interactive Weather Map New forecast layout! Learn more

10-Day Weather Forecast

Advertisements
Track Severe Weather on mobile